Time;durP1;ratioP1;P1;durP2;ratioP2;P2;SDS_P1;SDS_P2;PMS_P1;PMS_P2;Temp;Humidity;BMP_temperature;BMP_pressure;BME280_temperature;BME280_humidity;BME280_pressure;Samples;Min_cycle;Max_cycle;Signal;HPM_P1;HPM_P2
2022/08/29 00:02:04;;;;;;;18.63;11.63;;;17.30;99.90;;;;;;5102558;28;20052;-70
2022/08/29 00:04:31;;;;;;;15.00;10.30;;;17.30;99.90;;;;;;5097641;28;20044;-70
2022/08/29 00:06:59;;;;;;;19.02;11.80;;;17.20;99.90;;;;;;5086187;28;20031;-70
2022/08/29 00:09:30;;;;;;;17.63;11.02;;;17.20;99.90;;;;;;5098629;28;20552;-71
2022/08/29 00:12:09;;;;;;;13.55;10.63;;;17.10;99.90;;;;;;5095669;28;20054;-70
2022/08/29 00:14:36;;;;;;;16.67;11.88;;;17.10;99.90;;;;;;5091806;28;20466;-70
2022/08/29 00:17:03;;;;;;;16.60;11.23;;;17.10;99.90;;;;;;5092089;28;20055;-70
2022/08/29 00:19:31;;;;;;;14.45;10.23;;;17.00;99.90;;;;;;5079645;28;20188;-70
2022/08/29 00:21:58;;;;;;;14.45;11.20;;;17.00;99.90;;;;;;5089899;28;20067;-70
2022/08/29 00:24:26;;;;;;;13.45;10.45;;;17.00;99.90;;;;;;5083387;28;20040;-70
2022/08/29 00:26:53;;;;;;;15.65;10.73;;;16.90;99.90;;;;;;5083162;28;20048;-70
2022/08/29 00:29:20;;;;;;;16.98;11.23;;;16.90;99.90;;;;;;5099727;27;20041;-70
2022/08/29 00:31:48;;;;;;;15.43;11.48;;;16.90;99.90;;;;;;5100291;28;20089;-70
2022/08/29 00:34:15;;;;;;;14.38;11.15;;;16.80;99.90;;;;;;5094373;28;20036;-70
2022/08/29 00:36:43;;;;;;;16.27;10.50;;;16.90;99.90;;;;;;5108987;28;20055;-70
2022/08/29 00:39:15;;;;;;;13.32;11.18;;;16.80;99.90;;;;;;5093851;28;20046;-70
2022/08/29 00:41:45;;;;;;;17.58;11.50;;;16.80;99.90;;;;;;5094286;28;20055;-70
2022/08/29 00:44:12;;;;;;;15.65;11.07;;;16.80;99.90;;;;;;5098097;28;20135;-69
2022/08/29 00:46:40;;;;;;;16.33;11.57;;;16.80;99.90;;;;;;5099876;28;20137;-70
2022/08/29 00:49:30;;;;;;;18.90;11.15;;;16.80;99.90;;;;;;5097306;28;20510;-70
2022/08/29 00:52:06;;;;;;;16.52;11.68;;;16.80;99.90;;;;;;5083401;28;20858;-71
2022/08/29 00:54:35;;;;;;;14.88;11.05;;;16.70;99.90;;;;;;5100612;28;20383;-69
2022/08/29 00:57:02;;;;;;;15.10;11.70;;;16.70;99.90;;;;;;5082064;28;20073;-70
2022/08/29 00:59:35;;;;;;;16.35;11.30;;;16.70;99.90;;;;;;5098908;28;20070;-70
2022/08/29 01:02:04;;;;;;;20.10;12.45;;;16.60;99.90;;;;;;5099015;28;20043;-70
2022/08/29 01:04:32;;;;;;;17.60;12.32;;;16.60;99.90;;;;;;5094309;28;20036;-70
2022/08/29 01:06:59;;;;;;;13.65;10.30;;;16.60;99.90;;;;;;5106649;28;20095;-71
2022/08/29 01:09:28;;;;;;;15.75;12.27;;;16.60;99.90;;;;;;5090747;28;20552;-71
2022/08/29 01:14:52;;;;;;;17.33;13.35;;;16.50;99.90;;;;;;5093301;28;20076;-71
2022/08/29 01:17:26;;;;;;;15.52;11.77;;;16.50;99.90;;;;;;5098928;28;20051;-70
2022/08/29 01:20:18;;;;;;;18.58;13.05;;;16.40;99.90;;;;;;5097569;28;20044;-70
2022/08/29 01:23:10;;;;;;;18.38;12.77;;;16.40;99.90;;;;;;5096711;28;20055;-69
2022/08/29 01:25:40;;;;;;;;;;;16.30;99.90;;;;;;5088527;28;20036;-70
2022/08/29 01:28:18;;;;;;;18.65;12.90;;;16.30;99.90;;;;;;5091573;28;20390;-70
2022/08/29 01:31:03;;;;;;;18.05;11.48;;;16.20;99.90;;;;;;5094206;28;20425;-70
2022/08/29 01:33:36;;;;;;;15.52;11.30;;;16.10;99.90;;;;;;5087437;28;20048;-70
2022/08/29 01:36:04;;;;;;;21.60;12.95;;;16.10;99.90;;;;;;5112316;28;20445;-71
2022/08/29 01:38:32;;;;;;;17.73;11.95;;;16.00;99.90;;;;;;5079679;28;20047;-70
2022/08/29 01:40:59;;;;;;;17.65;13.25;;;16.00;99.90;;;;;;5088203;28;20044;-70
2022/08/29 01:43:28;;;;;;;19.58;12.85;;;16.00;99.90;;;;;;5090931;28;20062;-70
2022/08/29 01:45:56;;;;;;;17.80;12.57;;;16.00;99.90;;;;;;5094601;28;20043;-70
2022/08/29 01:48:23;;;;;;;21.90;12.70;;;16.00;99.90;;;;;;5100058;28;20139;-70
2022/08/29 01:50:51;;;;;;;16.98;12.20;;;16.00;99.90;;;;;;5091960;28;20522;-70
2022/08/29 01:53:19;;;;;;;17.27;12.15;;;16.00;99.90;;;;;;5103025;28;20050;-70
2022/08/29 01:55:46;;;;;;;19.85;12.48;;;15.90;99.90;;;;;;5089003;28;20036;-71
2022/08/29 01:58:15;;;;;;;18.20;12.57;;;15.90;99.90;;;;;;5107125;27;20096;-70
2022/08/29 02:00:42;;;;;;;15.73;11.77;;;15.90;99.90;;;;;;5104778;28;20142;-70
2022/08/29 02:03:10;;;;;;;15.85;11.75;;;15.90;99.90;;;;;;5123389;27;20038;-71
2022/08/29 02:05:37;;;;;;;15.82;12.20;;;15.90;99.90;;;;;;5098435;28;20036;-71
2022/08/29 02:08:04;;;;;;;18.33;12.18;;;15.80;99.90;;;;;;5092506;28;20035;-70
2022/08/29 02:10:32;;;;;;;17.25;13.35;;;15.80;99.90;;;;;;5074036;28;20417;-70
2022/08/29 02:13:00;;;;;;;17.45;12.25;;;15.80;99.90;;;;;;5079600;28;20139;-70
2022/08/29 02:15:27;;;;;;;18.05;13.25;;;15.80;99.90;;;;;;5089242;28;20048;-70
2022/08/29 02:17:55;;;;;;;17.92;13.43;;;15.70;99.90;;;;;;5092703;28;20401;-71
2022/08/29 02:20:22;;;;;;;18.05;13.30;;;15.70;99.90;;;;;;5104572;28;20039;-70
2022/08/29 02:22:50;;;;;;;18.10;13.10;;;15.70;99.90;;;;;;5073290;28;20470;-70
2022/08/29 02:28:03;;;;;;;19.73;12.43;;;15.70;99.90;;;;;;5106176;28;20490;-70
2022/08/29 02:30:30;;;;;;;19.90;13.13;;;15.70;99.90;;;;;;5107572;28;20073;-70
2022/08/29 02:32:58;;;;;;;16.48;13.30;;;15.70;99.90;;;;;;5097184;28;20036;-70
2022/08/29 02:35:25;;;;;;;21.23;14.65;;;15.60;99.90;;;;;;5091643;28;20090;-70
2022/08/29 02:37:55;;;;;;;18.20;13.68;;;15.60;99.90;;;;;;5086801;28;20061;-70
2022/08/29 02:40:25;;;;;;;16.13;12.43;;;15.60;99.90;;;;;;5086024;28;20043;-71
2022/08/29 02:42:59;;;;;;;16.02;12.80;;;15.60;99.90;;;;;;5088553;28;20512;-70
2022/08/29 02:45:27;;;;;;;20.17;13.20;;;15.50;99.90;;;;;;5097037;28;20159;-70
2022/08/29 02:47:54;;;;;;;20.98;12.95;;;15.50;99.90;;;;;;5098584;28;20130;-70
2022/08/29 02:50:24;;;;;;;17.27;12.55;;;15.50;99.90;;;;;;5088728;28;20097;-69
2022/08/29 02:52:51;;;;;;;17.65;13.07;;;15.50;99.90;;;;;;5077196;28;20474;-70
2022/08/29 02:55:20;;;;;;;19.33;12.90;;;15.50;99.90;;;;;;5087828;28;20497;-70
2022/08/29 02:57:47;;;;;;;25.20;13.55;;;15.50;99.90;;;;;;5097356;28;20124;-71
2022/08/29 03:00:18;;;;;;;18.75;13.18;;;15.50;99.90;;;;;;5116572;27;20126;-70
2022/08/29 03:02:46;;;;;;;17.77;12.57;;;15.50;99.90;;;;;;5097589;28;20442;-70
2022/08/29 03:05:15;;;;;;;17.65;13.23;;;15.50;99.90;;;;;;5086757;28;20058;-70
2022/08/29 03:07:42;;;;;;;17.58;13.07;;;15.50;99.90;;;;;;5097848;28;20122;-70
2022/08/29 03:10:16;;;;;;;16.90;12.23;;;15.50;99.90;;;;;;5109364;28;20042;-70
2022/08/29 03:12:43;;;;;;;19.63;12.40;;;15.40;99.90;;;;;;5106218;28;20079;-70
2022/08/29 03:15:12;;;;;;;18.98;13.20;;;15.40;99.90;;;;;;5089281;28;20423;-70
2022/08/29 03:17:39;;;;;;;19.08;12.40;;;15.40;99.90;;;;;;5084089;28;20123;-70
2022/08/29 03:20:08;;;;;;;16.45;12.38;;;15.40;99.90;;;;;;5096713;28;20050;-70
2022/08/29 03:22:36;;;;;;;16.42;13.15;;;15.40;99.90;;;;;;5094423;28;20040;-70
2022/08/29 03:25:05;;;;;;;19.65;13.07;;;15.40;99.90;;;;;;5097346;28;20040;-70
2022/08/29 03:27:33;;;;;;;23.50;14.52;;;15.40;99.90;;;;;;5090346;28;20532;-70
2022/08/29 03:30:01;;;;;;;19.00;13.13;;;15.40;99.90;;;;;;5089718;28;20043;-70
2022/08/29 03:32:28;;;;;;;22.98;14.88;;;15.30;99.90;;;;;;5115326;27;20559;-71
2022/08/29 03:34:55;;;;;;;20.73;13.40;;;15.30;99.90;;;;;;5096915;28;20062;-70
2022/08/29 03:37:23;;;;;;;21.90;13.23;;;15.20;99.90;;;;;;5070336;28;20143;-70
2022/08/29 03:39:53;;;;;;;18.20;13.75;;;15.20;99.90;;;;;;5087588;28;20094;-70
2022/08/29 03:42:21;;;;;;;18.50;13.52;;;15.20;99.90;;;;;;5084808;28;20044;-70
2022/08/29 03:44:48;;;;;;;21.00;14.30;;;15.20;99.90;;;;;;5114474;27;20051;-70
2022/08/29 03:47:16;;;;;;;19.95;13.80;;;15.20;99.90;;;;;;5103010;28;20042;-70
2022/08/29 03:49:43;;;;;;;17.92;13.25;;;15.10;99.90;;;;;;5094268;28;20047;-70
2022/08/29 03:52:11;;;;;;;23.48;14.18;;;15.10;99.90;;;;;;5100522;28;20047;-71
2022/08/29 03:54:38;;;;;;;17.02;13.52;;;15.10;99.90;;;;;;5095523;28;20049;-71
2022/08/29 03:57:06;;;;;;;23.42;14.60;;;15.10;99.90;;;;;;5084661;28;20074;-70
2022/08/29 03:59:34;;;;;;;19.42;13.50;;;15.00;99.90;;;;;;5073718;28;20080;-71
2022/08/29 04:02:02;;;;;;;21.83;14.63;;;15.00;99.90;;;;;;5078609;28;20048;-71
2022/08/29 04:07:16;;;;;;;17.35;12.25;;;15.00;99.90;;;;;;5088239;28;20074;-70
2022/08/29 04:09:43;;;;;;;23.73;14.98;;;15.00;99.90;;;;;;5105176;28;20131;-70
2022/08/29 04:12:12;;;;;;;17.35;13.40;;;15.00;99.90;;;;;;5106460;28;20040;-70
2022/08/29 04:14:40;;;;;;;18.48;12.82;;;15.00;99.90;;;;;;5091700;28;20044;-70
2022/08/29 04:17:09;;;;;;;18.88;13.13;;;15.00;99.90;;;;;;5081431;28;20510;-70
2022/08/29 04:19:36;;;;;;;18.75;12.80;;;15.00;99.90;;;;;;5086609;28;20515;-70
2022/08/29 04:22:05;;;;;;;20.08;14.45;;;15.10;99.90;;;;;;5098008;28;20042;-70
2022/08/29 04:24:33;;;;;;;21.00;13.88;;;15.10;99.90;;;;;;5102141;27;20392;-70
2022/08/29 04:27:01;;;;;;;20.35;12.93;;;15.10;99.90;;;;;;5081297;28;20112;-71
2022/08/29 04:29:28;;;;;;;20.40;12.68;;;15.10;99.90;;;;;;5087762;27;20690;-71
2022/08/29 04:31:55;;;;;;;21.50;13.43;;;15.20;99.90;;;;;;5105116;28;20082;-71
2022/08/29 04:34:23;;;;;;;22.35;13.35;;;15.20;99.90;;;;;;5103944;28;20048;-70
2022/08/29 04:36:50;;;;;;;19.85;13.00;;;15.20;99.90;;;;;;5087428;28;20128;-70
2022/08/29 04:39:18;;;;;;;18.08;11.82;;;15.20;99.90;;;;;;5083775;28;20374;-71
2022/08/29 04:41:45;;;;;;;16.52;12.35;;;15.20;99.90;;;;;;5096539;27;20338;-69
2022/08/29 04:44:12;;;;;;;19.17;11.70;;;15.30;99.90;;;;;;5093284;28;20040;-69
2022/08/29 04:46:40;;;;;;;19.05;11.93;;;15.30;99.90;;;;;;5094419;28;20109;-69
2022/08/29 04:49:08;;;;;;;17.85;12.05;;;15.40;99.90;;;;;;5084170;28;20044;-70
2022/08/29 04:51:35;;;;;;;19.80;11.57;;;15.40;99.90;;;;;;5083396;28;20457;-70
2022/08/29 04:54:05;;;;;;;17.25;12.32;;;15.40;99.90;;;;;;5077265;28;20476;-70
2022/08/29 04:56:33;;;;;;;17.40;12.88;;;15.50;99.90;;;;;;5090925;28;20063;-70
2022/08/29 04:59:00;;;;;;;16.60;12.82;;;15.50;99.90;;;;;;5092890;28;20089;-70
2022/08/29 05:01:28;;;;;;;17.13;11.18;;;15.60;99.90;;;;;;5093029;28;20409;-70
2022/08/29 05:03:56;;;;;;;17.48;12.20;;;15.60;99.90;;;;;;5095253;28;20047;-70
2022/08/29 05:06:26;;;;;;;17.10;11.80;;;15.60;99.90;;;;;;5063657;28;20063;-70
2022/08/29 05:08:53;;;;;;;16.90;11.50;;;15.70;99.90;;;;;;5076650;28;20197;-71
2022/08/29 05:11:29;;;;;;;21.45;14.25;;;15.70;99.90;;;;;;5088351;28;20102;-70
2022/08/29 05:13:57;;;;;;;22.55;14.30;;;15.80;99.90;;;;;;5081586;28;20051;-69
2022/08/29 05:16:25;;;;;;;18.80;12.75;;;15.80;99.90;;;;;;5073518;28;20044;-69
2022/08/29 05:18:53;;;;;;;23.58;14.57;;;15.80;99.90;;;;;;5096400;28;20641;-71
2022/08/29 05:21:31;;;;;;;20.92;14.98;;;15.80;99.90;;;;;;5091335;28;20051;-70
2022/08/29 05:24:08;;;;;;;22.25;15.18;;;15.80;99.90;;;;;;5090951;28;20037;-70
2022/08/29 05:26:39;;;;;;;20.05;12.95;;;15.90;99.90;;;;;;5082223;28;20040;-70
2022/08/29 05:29:09;;;;;;;23.17;16.13;;;15.90;99.90;;;;;;5087212;28;20064;-70
2022/08/29 05:31:41;;;;;;;19.17;14.93;;;15.90;99.90;;;;;;5095581;28;20480;-71
2022/08/29 05:34:12;;;;;;;14.20;10.52;;;16.00;99.90;;;;;;5108971;27;20047;-71
2022/08/29 05:36:59;;;;;;;18.67;12.05;;;16.10;99.90;;;;;;5092228;28;20047;-70
2022/08/29 05:39:27;;;;;;;15.45;10.55;;;16.20;99.90;;;;;;5101292;28;20482;-70
2022/08/29 05:41:56;;;;;;;18.80;11.98;;;16.30;99.90;;;;;;5102965;28;20035;-70
2022/08/29 05:44:26;;;;;;;19.40;11.48;;;16.30;99.90;;;;;;5099922;28;20048;-70
2022/08/29 05:46:58;;;;;;;15.38;9.73;;;16.40;99.90;;;;;;5085730;28;20048;-70
2022/08/29 05:49:26;;;;;;;19.88;11.15;;;16.40;99.90;;;;;;5106637;28;20538;-70
2022/08/29 05:51:55;;;;;;;17.20;10.43;;;16.60;99.90;;;;;;5106981;28;20162;-70
2022/08/29 05:54:24;;;;;;;15.35;9.38;;;16.70;99.90;;;;;;5085400;28;20060;-71
2022/08/29 05:56:56;;;;;;;15.50;9.85;;;16.70;99.90;;;;;;5081179;28;20464;-70
2022/08/29 05:59:24;;;;;;;14.80;10.25;;;16.80;99.90;;;;;;5101785;28;20048;-71
2022/08/29 06:01:51;;;;;;;14.70;9.02;;;16.80;99.90;;;;;;5091058;28;20466;-70
2022/08/29 06:04:18;;;;;;;14.38;9.88;;;16.90;99.90;;;;;;5102718;28;20065;-70
2022/08/29 06:06:46;;;;;;;11.50;8.40;;;17.00;99.90;;;;;;5079020;28;20143;-71
2022/08/29 06:09:13;;;;;;;14.30;9.02;;;16.90;99.90;;;;;;5101566;27;20063;-71
2022/08/29 06:11:46;;;;;;;11.88;8.65;;;17.00;99.90;;;;;;5106515;27;20040;-71
2022/08/29 06:14:14;;;;;;;15.13;9.25;;;17.10;99.90;;;;;;5073527;28;20132;-72
2022/08/29 06:16:42;;;;;;;11.18;8.43;;;17.20;99.90;;;;;;5087477;28;20125;-71
2022/08/29 06:19:10;;;;;;;13.63;8.80;;;17.20;99.90;;;;;;5093585;28;20439;-71
2022/08/29 06:21:38;;;;;;;12.60;8.75;;;17.30;99.90;;;;;;5096244;28;20810;-72
2022/08/29 06:24:06;;;;;;;12.88;8.45;;;17.40;99.90;;;;;;5087524;28;20052;-71
2022/08/29 06:26:33;;;;;;;13.40;8.50;;;17.40;99.90;;;;;;5094903;28;20520;-72
2022/08/29 06:29:06;;;;;;;12.73;8.25;;;17.40;99.90;;;;;;5084686;28;20139;-71
2022/08/29 06:31:34;;;;;;;12.65;7.68;;;17.50;99.90;;;;;;5094506;27;20066;-74
2022/08/29 06:34:04;;;;;;;17.35;9.30;;;17.50;99.90;;;;;;5103036;27;20133;-71
2022/08/29 06:36:32;;;;;;;11.85;7.90;;;17.70;99.90;;;;;;5092347;28;20439;-72
2022/08/29 06:39:07;;;;;;;11.40;8.50;;;17.80;99.90;;;;;;5088597;28;20836;-72
2022/08/29 06:41:37;;;;;;;12.40;7.88;;;17.90;99.90;;;;;;5084219;28;20036;-73
2022/08/29 06:44:07;;;;;;;12.95;8.45;;;18.00;99.90;;;;;;5101477;27;20511;-72
2022/08/29 06:46:40;;;;;;;11.07;7.65;;;18.10;99.90;;;;;;5067720;28;20150;-72
2022/08/29 06:49:11;;;;;;;14.27;7.55;;;18.20;99.90;;;;;;5092473;28;20047;-72
2022/08/29 06:51:41;;;;;;;12.68;7.85;;;18.30;99.90;;;;;;5088748;28;20388;-71
2022/08/29 06:54:11;;;;;;;14.95;7.97;;;18.40;99.90;;;;;;5085210;28;20110;-73
2022/08/29 06:56:40;;;;;;;14.38;7.78;;;18.60;99.90;;;;;;5105133;28;20097;-73
2022/08/29 06:59:10;;;;;;;11.80;7.85;;;18.70;99.90;;;;;;5090335;28;20465;-73
2022/08/29 07:01:39;;;;;;;11.60;8.07;;;18.80;99.90;;;;;;5076294;28;20589;-73
2022/08/29 07:04:07;;;;;;;13.07;7.85;;;18.90;99.90;;;;;;5090385;28;20048;-75
2022/08/29 07:06:42;;;;;;;12.77;8.05;;;19.00;99.90;;;;;;5053301;28;20405;-73
2022/08/29 07:09:10;;;;;;;11.35;7.22;;;19.10;99.90;;;;;;5100725;27;20093;-74
2022/08/29 07:11:39;;;;;;;12.50;7.63;;;19.20;99.90;;;;;;5093732;28;20406;-74
2022/08/29 07:14:08;;;;;;;12.95;7.97;;;19.40;99.90;;;;;;5102868;27;20075;-75
2022/08/29 07:16:35;;;;;;;10.05;7.45;;;19.60;99.90;;;;;;5068254;28;20134;-72
2022/08/29 07:19:05;;;;;;;11.68;7.00;;;19.70;99.90;;;;;;5059935;28;20448;-73
2022/08/29 07:21:33;;;;;;;10.70;7.40;;;19.90;99.90;;;;;;5077025;28;20040;-73
2022/08/29 07:24:01;;;;;;;12.25;7.88;;;20.00;99.90;;;;;;5089740;28;20139;-74
2022/08/29 07:26:31;;;;;;;11.75;7.30;;;20.10;99.90;;;;;;5122060;27;20101;-74
2022/08/29 07:29:03;;;;;;;10.00;7.10;;;20.30;99.90;;;;;;5092014;28;20043;-73
2022/08/29 07:31:30;;;;;;;10.25;7.38;;;20.50;99.90;;;;;;5075670;28;20040;-73
2022/08/29 07:33:57;;;;;;;9.88;7.28;;;20.70;99.90;;;;;;5088080;28;20190;-72
2022/08/29 07:36:32;;;;;;;11.55;7.82;;;20.90;99.90;;;;;;5103609;27;20097;-72
2022/08/29 07:39:03;;;;;;;10.27;7.20;;;21.10;99.90;;;;;;5075542;28;20819;-73
2022/08/29 07:41:30;;;;;;;14.63;7.75;;;21.20;99.90;;;;;;5083981;28;20047;-73
2022/08/29 07:43:58;;;;;;;10.40;7.20;;;21.30;99.90;;;;;;5089116;28;20048;-72
2022/08/29 07:46:25;;;;;;;13.73;7.60;;;21.40;99.90;;;;;;5107168;27;20044;-72
2022/08/29 07:48:53;;;;;;;12.48;7.53;;;21.30;99.90;;;;;;5073775;28;20044;-73
2022/08/29 07:51:22;;;;;;;13.55;7.70;;;21.40;99.90;;;;;;5099692;27;20075;-73
2022/08/29 07:53:50;;;;;;;11.88;7.82;;;21.10;99.90;;;;;;5078436;28;20798;-72
2022/08/29 07:56:37;;;;;;;9.05;7.88;;;21.00;99.90;;;;;;5080574;28;20044;-73
2022/08/29 07:59:05;;;;;;;13.27;7.90;;;20.90;99.90;;;;;;5078122;28;20070;-72
2022/08/29 08:01:34;;;;;;;11.15;7.28;;;20.90;99.90;;;;;;5085659;28;20526;-74
2022/08/29 08:04:01;;;;;;;12.32;7.78;;;20.90;99.90;;;;;;5056520;28;20048;-74
2022/08/29 08:06:29;;;;;;;12.20;8.00;;;20.90;99.90;;;;;;5067017;28;20114;-74
2022/08/29 08:09:00;;;;;;;12.27;8.37;;;20.70;99.90;;;;;;5108367;27;20051;-74
2022/08/29 08:11:28;;;;;;;11.18;7.78;;;20.70;99.90;;;;;;5076210;28;20048;-73
2022/08/29 08:13:56;;;;;;;13.93;8.93;;;20.70;99.90;;;;;;5087541;28;20068;-73
2022/08/29 08:16:26;;;;;;;11.65;8.20;;;20.70;99.90;;;;;;5072276;28;20780;-74
2022/08/29 08:18:54;;;;;;;10.93;7.60;;;20.70;99.90;;;;;;5059536;28;20517;-74
2022/08/29 08:21:22;;;;;;;10.68;7.47;;;20.80;99.90;;;;;;5090519;28;20044;-72
2022/08/29 08:23:51;;;;;;;10.75;8.07;;;20.90;99.90;;;;;;5089890;28;20059;-72
2022/08/29 08:26:19;;;;;;;10.50;8.02;;;21.00;99.90;;;;;;5104129;27;20032;-73
2022/08/29 08:28:46;;;;;;;11.13;7.93;;;21.10;99.90;;;;;;5086673;28;20035;-72
2022/08/29 08:31:15;;;;;;;10.73;7.38;;;21.30;99.90;;;;;;5090641;28;20442;-72
2022/08/29 08:33:43;;;;;;;10.90;7.88;;;21.20;99.90;;;;;;5084666;28;20350;-73
2022/08/29 08:36:16;;;;;;;16.08;8.23;;;21.10;99.90;;;;;;5086859;28;20493;-73
2022/08/29 08:38:44;;;;;;;13.20;8.20;;;21.20;99.90;;;;;;5066265;28;20109;-74
2022/08/29 08:41:48;;;;;;;13.23;7.78;;;21.30;99.90;;;;;;5078020;28;20135;-75
2022/08/29 08:44:21;;;;;;;12.98;7.88;;;21.10;99.90;;;;;;5052639;28;20571;-74
2022/08/29 08:46:58;;;;;;;12.95;8.20;;;21.10;99.90;;;;;;5093619;27;20506;-76
2022/08/29 08:49:37;;;;;;;12.27;8.02;;;20.80;99.90;;;;;;5103843;28;20063;-75
2022/08/29 08:52:12;;;;;;;16.33;7.72;;;20.70;99.90;;;;;;5072999;28;20435;-75
2022/08/29 08:54:48;;;;;;;9.27;7.15;;;20.90;99.90;;;;;;5087390;28;20044;-75
2022/08/29 08:57:17;;;;;;;10.70;7.22;;;21.10;99.90;;;;;;5103338;28;20486;-74
2022/08/29 08:59:48;;;;;;;13.93;7.30;;;21.20;99.90;;;;;;5076344;28;20054;-76
2022/08/29 09:02:33;;;;;;;;;;;21.40;99.90;;;;;;5097936;27;20063;-75
2022/08/29 09:05:26;;;;;;;13.25;7.80;;;21.60;99.90;;;;;;5068086;28;19934;-75
2022/08/29 09:08:06;;;;;;;9.60;7.65;;;21.80;99.90;;;;;;5105121;28;20067;-75
2022/08/29 09:10:58;;;;;;;11.38;7.22;;;22.10;99.90;;;;;;5084373;28;20044;-75
2022/08/29 09:14:16;;;;;;;8.90;6.88;;;22.20;99.90;;;;;;5102371;28;20036;-75
2022/08/29 09:16:49;;;;;;;13.63;7.60;;;22.30;99.90;;;;;;5025225;28;20774;-75
2022/08/29 09:19:16;;;;;;;9.95;7.68;;;22.50;99.90;;;;;;5026464;28;20045;-75
2022/08/29 09:21:52;;;;;;;12.27;7.30;;;22.60;99.90;;;;;;5008359;28;20041;-75
2022/08/29 09:24:34;;;;;;;12.73;7.80;;;22.70;99.90;;;;;;5025847;28;20079;-75
2022/08/29 09:27:02;;;;;;;10.57;7.45;;;22.80;99.90;;;;;;5007811;28;20057;-76
2022/08/29 09:29:30;;;;;;;11.68;7.25;;;22.90;99.90;;;;;;5022239;28;20041;-75
2022/08/29 09:32:10;;;;;;;10.40;7.10;;;22.90;99.90;;;;;;5026317;28;20435;-75
2022/08/29 09:34:43;;;;;;;9.98;7.20;;;23.00;99.90;;;;;;5025072;28;20422;-75
2022/08/29 09:37:33;;;;;;;13.18;7.75;;;23.20;99.90;;;;;;5007688;28;20475;-76
2022/08/29 09:40:06;;;;;;;13.50;7.15;;;23.10;99.90;;;;;;5021512;28;20057;-75
2022/08/29 09:42:38;;;;;;;9.50;7.00;;;22.90;99.90;;;;;;5039076;28;20570;-76
2022/08/29 09:45:25;;;;;;;8.38;6.75;;;23.20;99.90;;;;;;5025122;28;20125;-76
2022/08/29 09:48:13;;;;;;;15.70;7.80;;;23.30;99.90;;;;;;5004939;28;20229;-76
2022/08/29 09:50:41;;;;;;;11.90;7.35;;;23.60;99.90;;;;;;5028639;28;20040;-76
2022/08/29 09:53:09;;;;;;;16.00;7.47;;;23.60;99.90;;;;;;5035325;28;20052;-75
2022/08/29 09:55:51;;;;;;;10.88;7.28;;;23.50;99.90;;;;;;5066732;28;20425;-75
2022/08/29 09:58:19;;;;;;;14.43;8.30;;;23.60;99.90;;;;;;5078208;28;20459;-75
2022/08/29 10:01:03;;;;;;;10.85;7.97;;;23.50;99.90;;;;;;5059756;28;20056;-74
2022/08/29 10:03:36;;;;;;;10.32;8.05;;;23.50;99.90;;;;;;5076952;28;20055;-76
2022/08/29 10:06:14;;;;;;;12.07;8.15;;;23.50;99.90;;;;;;5093657;28;20059;-74
2022/08/29 10:08:53;;;;;;;9.68;7.50;;;23.70;99.90;;;;;;5087941;28;20481;-75
2022/08/29 10:11:48;;;;;;;14.63;7.93;;;23.80;99.90;;;;;;5095813;28;20474;-74
2022/08/29 10:14:33;;;;;;;10.98;8.02;;;24.00;99.90;;;;;;5087640;28;20417;-76
2022/08/29 10:20:10;;;;;;;11.45;7.50;;;24.20;99.90;;;;;;5096636;28;20502;-77
2022/08/29 10:22:52;;;;;;;11.07;8.13;;;24.10;99.90;;;;;;5098899;28;20578;-78
2022/08/29 10:25:35;;;;;;;13.57;8.63;;;24.00;99.90;;;;;;5101268;28;20036;-76
2022/08/29 10:28:18;;;;;;;13.32;8.02;;;24.30;99.90;;;;;;5080017;28;20049;-76
2022/08/29 10:31:10;;;;;;;12.93;8.00;;;24.40;99.90;;;;;;5086215;28;20139;-75
2022/08/29 10:33:53;;;;;;;11.70;7.63;;;24.40;99.90;;;;;;5067993;28;20052;-76
2022/08/29 10:36:34;;;;;;;13.77;8.02;;;24.50;99.90;;;;;;5079194;28;20140;-75
2022/08/29 10:39:12;;;;;;;8.98;7.40;;;24.60;99.90;;;;;;5086309;28;20134;-75
2022/08/29 10:41:59;;;;;;;10.50;7.50;;;24.90;99.90;;;;;;5093157;28;20134;-75
2022/08/29 10:44:44;;;;;;;10.25;7.53;;;25.10;99.90;;;;;;5100063;28;20055;-76
2022/08/29 10:47:20;;;;;;;11.10;8.13;;;25.20;99.90;;;;;;5087566;28;20040;-75
2022/08/29 10:50:07;;;;;;;9.63;7.85;;;25.40;99.90;;;;;;5085067;28;20048;-76
2022/08/29 10:53:24;;;;;;;12.85;8.23;;;25.70;99.90;;;;;;5094561;28;20043;-75
2022/08/29 10:55:54;;;;;;;9.40;7.78;;;25.90;99.90;;;;;;5090160;28;20069;-76
2022/08/29 10:58:21;;;;;;;9.98;7.60;;;26.10;99.90;;;;;;5088891;28;20515;-78
2022/08/29 11:00:55;;;;;;;12.32;7.40;;;26.20;99.90;;;;;;5087789;28;20097;-75
2022/08/29 11:03:23;;;;;;;12.38;7.20;;;26.10;99.90;;;;;;5086980;28;20046;-75
2022/08/29 11:05:58;;;;;;;9.45;7.38;;;26.40;99.90;;;;;;5076065;28;20040;-76
2022/08/29 11:08:33;;;;;;;10.38;7.45;;;26.40;99.90;;;;;;5077137;28;20327;-75
2022/08/29 11:11:00;;;;;;;11.52;7.55;;;26.40;99.90;;;;;;5066830;28;20063;-74
2022/08/29 11:13:34;;;;;;;12.40;7.60;;;26.70;99.90;;;;;;5085951;28;20044;-73
2022/08/29 11:16:18;;;;;;;9.25;7.03;;;27.10;99.90;;;;;;5083520;28;20040;-72
2022/08/29 11:18:55;;;;;;;11.63;7.43;;;27.40;99.90;;;;;;5086083;28;20505;-71
2022/08/29 11:21:41;;;;;;;10.55;7.70;;;27.40;99.90;;;;;;5094301;28;20070;-73
2022/08/29 11:24:10;;;;;;;9.15;7.80;;;27.60;99.90;;;;;;5093906;28;20044;-72
2022/08/29 11:26:43;;;;;;;9.68;7.50;;;27.60;99.90;;;;;;5078646;28;20032;-72
2022/08/29 11:29:16;;;;;;;11.15;7.20;;;27.90;99.90;;;;;;5088996;28;20316;-72
2022/08/29 11:32:05;;;;;;;9.98;7.60;;;28.20;99.90;;;;;;5092789;28;20064;-73
2022/08/29 11:34:42;;;;;;;9.57;7.60;;;28.30;99.90;;;;;;5081000;28;20054;-73
2022/08/29 11:37:31;;;;;;;8.77;7.43;;;28.90;99.90;;;;;;5084212;28;20036;-73
2022/08/29 11:40:30;;;;;;;9.43;8.15;;;29.50;99.90;;;;;;5064531;28;20040;-72
2022/08/29 11:43:23;;;;;;;9.43;8.00;;;29.10;99.90;;;;;;5077238;28;20044;-72
2022/08/29 11:46:31;;;;;;;9.32;8.23;;;28.40;99.90;;;;;;5092519;28;20084;-73
2022/08/29 11:49:34;;;;;;;9.40;8.07;;;29.20;99.90;;;;;;5094020;28;20065;-72
2022/08/29 11:52:09;;;;;;;9.30;7.60;;;29.70;99.90;;;;;;5045598;28;20075;-71
2022/08/29 11:54:38;;;;;;;11.40;8.38;;;29.30;99.90;;;;;;5100561;28;20138;-73
2022/08/29 11:57:08;;;;;;;9.65;8.50;;;29.60;99.90;;;;;;5115989;27;20039;-73
2022/08/29 11:59:48;;;;;;;9.35;7.80;;;29.80;99.90;;;;;;5089456;28;20135;-73
2022/08/29 12:02:28;;;;;;;9.35;7.00;;;29.60;99.90;;;;;;5090589;28;20429;-74
2022/08/29 12:04:57;;;;;;;11.55;8.48;;;29.60;99.90;;;;;;5086995;28;20036;-74
2022/08/29 12:07:43;;;;;;;8.68;7.82;;;30.20;99.90;;;;;;5096025;28;20044;-74
2022/08/29 12:10:24;;;;;;;9.35;8.38;;;30.20;99.90;;;;;;5081344;28;20515;-73
2022/08/29 12:12:57;;;;;;;12.07;7.88;;;30.00;99.90;;;;;;5079168;28;20131;-74
2022/08/29 12:15:37;;;;;;;10.43;8.07;;;30.00;99.90;;;;;;5096792;28;20128;-73
2022/08/29 12:18:12;;;;;;;9.25;7.85;;;30.00;99.90;;;;;;5087154;28;20851;-74
2022/08/29 12:20:43;;;;;;;8.02;7.22;;;30.50;99.90;;;;;;5109205;27;20067;-74
2022/08/29 12:23:11;;;;;;;9.55;7.55;;;30.80;99.60;;;;;;5114094;27;20062;-73
2022/08/29 12:25:46;;;;;;;10.27;8.35;;;31.20;99.50;;;;;;5093009;28;20035;-73
2022/08/29 12:28:45;;;;;;;9.38;8.10;;;30.80;99.30;;;;;;5080750;28;20669;-74
2022/08/29 12:31:39;;;;;;;8.73;7.28;;;31.70;98.10;;;;;;5079859;28;20048;-74
2022/08/29 12:34:44;;;;;;;9.55;7.80;;;32.30;97.70;;;;;;5090848;28;20489;-73
2022/08/29 12:37:36;;;;;;;9.93;8.15;;;32.90;96.00;;;;;;5096332;28;20047;-75
2022/08/29 12:40:17;;;;;;;9.20;8.18;;;33.20;95.00;;;;;;5077702;28;20051;-74
2022/08/29 12:43:10;;;;;;;9.75;8.00;;;33.20;93.70;;;;;;5087747;28;20083;-70
2022/08/29 12:45:42;;;;;;;9.35;7.55;;;32.40;93.60;;;;;;5104199;28;20511;-70
2022/08/29 12:48:39;;;;;;;9.07;8.13;;;32.20;93.30;;;;;;5103383;28;20043;-71
2022/08/29 12:51:08;;;;;;;8.18;7.38;;;32.30;93.00;;;;;;5090673;28;20054;-70
2022/08/29 12:53:36;;;;;;;9.38;7.82;;;32.30;92.80;;;;;;5101146;28;20050;-70
2022/08/29 12:56:19;;;;;;;8.48;7.68;;;32.90;91.50;;;;;;5098505;28;20052;-70
2022/08/29 12:58:50;;;;;;;8.70;7.80;;;32.50;90.70;;;;;;5104477;28;20458;-70
2022/08/29 13:01:36;;;;;;;10.43;7.40;;;33.00;90.90;;;;;;5103287;28;20500;-70
2022/08/29 13:04:10;;;;;;;8.75;7.78;;;33.50;90.60;;;;;;5084163;28;20402;-70
2022/08/29 13:06:55;;;;;;;9.35;8.45;;;34.30;89.10;;;;;;5085611;28;20068;-70
2022/08/29 13:09:31;;;;;;;9.10;7.85;;;33.40;89.30;;;;;;5097387;28;20418;-70
2022/08/29 13:12:15;;;;;;;9.05;7.53;;;33.70;90.00;;;;;;5076022;28;20514;-70
2022/08/29 13:15:20;;;;;;;8.75;7.75;;;33.90;89.20;;;;;;5089947;28;20480;-70
2022/08/29 13:17:50;;;;;;;9.13;8.23;;;34.30;87.50;;;;;;5087610;28;20057;-70